createdAt,value
2022-10-26T00:01:10.710Z,28.57
2022-10-26T00:03:39.784Z,27.97
2022-10-26T00:06:12.087Z,30.27
2022-10-26T00:08:41.394Z,29.00
2022-10-26T00:11:09.001Z,30.03
2022-10-26T00:13:38.871Z,35.03
2022-10-26T00:16:14.913Z,33.50
2022-10-26T00:18:42.207Z,29.97
2022-10-26T00:21:11.830Z,27.57
2022-10-26T00:23:39.034Z,28.00
2022-10-26T00:26:07.347Z,28.60
2022-10-26T00:28:34.309Z,39.93
2022-10-26T00:31:03.237Z,41.97
2022-10-26T00:33:30.863Z,39.43
2022-10-26T00:35:57.824Z,35.97
2022-10-26T00:38:24.647Z,31.63
2022-10-26T00:40:51.799Z,37.57
2022-10-26T00:43:21.707Z,35.60
2022-10-26T00:45:53.514Z,38.93
2022-10-26T00:48:27.170Z,33.23
2022-10-26T00:50:56.439Z,35.23
2022-10-26T00:53:23.465Z,34.57
2022-10-26T00:55:52.569Z,41.50
2022-10-26T00:58:21.527Z,39.57
2022-10-26T01:00:49.696Z,35.43
2022-10-26T01:03:18.592Z,30.90
2022-10-26T01:05:47.618Z,32.57
2022-10-26T01:08:15.998Z,37.30
2022-10-26T01:10:43.246Z,29.27
2022-10-26T01:13:12.481Z,37.37
2022-10-26T01:15:49.748Z,29.33
2022-10-26T01:18:33.745Z,31.63
2022-10-26T01:21:14.521Z,37.13
2022-10-26T01:24:18.847Z,40.43
2022-10-26T01:27:18.811Z,36.23
2022-10-26T01:30:13.870Z,40.40
2022-10-26T01:32:46.323Z,40.20
2022-10-26T01:35:34.665Z,36.77
2022-10-26T01:38:11.884Z,35.00
2022-10-26T01:40:51.885Z,41.00
2022-10-26T01:43:20.168Z,41.73
2022-10-26T01:45:48.681Z,38.67
2022-10-26T01:48:20.536Z,43.33
2022-10-26T01:50:53.857Z,38.63
2022-10-26T01:53:20.862Z,38.97
2022-10-26T01:55:51.662Z,45.40
2022-10-26T01:58:38.314Z,36.80
2022-10-26T02:01:23.801Z,41.47
2022-10-26T02:03:56.733Z,38.03
2022-10-26T02:06:53.622Z,37.60
2022-10-26T02:09:34.265Z,42.80
2022-10-26T02:12:07.035Z,39.60
2022-10-26T02:14:33.736Z,42.07
2022-10-26T02:17:29.020Z,35.33
2022-10-26T02:20:09.258Z,37.67
2022-10-26T02:22:45.221Z,37.23
2022-10-26T02:25:22.206Z,38.03
2022-10-26T02:27:57.736Z,35.30
2022-10-26T02:30:25.203Z,34.13
2022-10-26T02:32:55.251Z,38.60
2022-10-26T02:35:27.346Z,33.43
2022-10-26T02:37:57.585Z,30.67
2022-10-26T02:40:28.116Z,34.30
2022-10-26T02:42:58.040Z,35.90
2022-10-26T02:45:30.650Z,43.87
2022-10-26T02:47:58.087Z,34.77
2022-10-26T02:50:47.644Z,39.10
2022-10-26T02:53:24.227Z,33.63
2022-10-26T02:55:52.839Z,37.23
2022-10-26T02:58:30.131Z,37.47
2022-10-26T03:00:58.784Z,31.50
2022-10-26T03:03:25.997Z,32.00
2022-10-26T03:05:52.895Z,37.33
2022-10-26T03:08:19.747Z,35.03
2022-10-26T03:10:46.984Z,34.10
2022-10-26T03:13:14.146Z,32.43
2022-10-26T03:15:41.173Z,38.90
2022-10-26T03:18:08.278Z,34.17
2022-10-26T03:20:37.521Z,34.77
2022-10-26T03:23:05.739Z,37.70
2022-10-26T03:25:34.519Z,35.93
2022-10-26T03:28:03.645Z,36.00
2022-10-26T03:30:31.455Z,33.27
2022-10-26T03:32:58.458Z,30.43
2022-10-26T03:35:26.286Z,32.43
2022-10-26T03:37:53.355Z,31.60
2022-10-26T03:40:23.166Z,34.00
2022-10-26T03:42:50.298Z,32.87
2022-10-26T03:45:17.263Z,30.97
2022-10-26T03:47:50.741Z,33.57
2022-10-26T03:50:20.477Z,30.00
2022-10-26T03:52:48.658Z,33.07
2022-10-26T03:55:16.180Z,36.97
2022-10-26T03:57:44.150Z,34.60
2022-10-26T04:00:15.494Z,31.03
2022-10-26T04:02:53.400Z,28.60
2022-10-26T04:05:22.382Z,29.93
2022-10-26T04:07:54.059Z,26.90
2022-10-26T04:10:21.609Z,28.33
2022-10-26T04:12:48.537Z,28.87
2022-10-26T04:15:18.235Z,33.07
2022-10-26T04:17:46.291Z,28.47
2022-10-26T04:20:14.016Z,34.40
2022-10-26T04:22:41.899Z,25.33
2022-10-26T04:25:08.935Z,28.63
2022-10-26T04:27:37.739Z,29.93
2022-10-26T04:30:08.249Z,29.40
2022-10-26T04:32:35.430Z,32.57
2022-10-26T04:35:03.272Z,25.47
2022-10-26T04:37:30.086Z,25.77
2022-10-26T04:39:56.875Z,26.17
2022-10-26T04:42:26.473Z,27.90
2022-10-26T04:44:53.378Z,26.83
2022-10-26T04:47:20.090Z,27.90
2022-10-26T04:49:46.998Z,26.43
2022-10-26T04:52:13.807Z,24.30
2022-10-26T04:54:40.546Z,26.27
2022-10-26T04:57:07.370Z,24.03
2022-10-26T04:59:34.132Z,26.17
2022-10-26T05:02:00.910Z,23.93
2022-10-26T05:04:28.864Z,27.80
2022-10-26T05:06:55.718Z,26.57
2022-10-26T05:09:22.548Z,21.67
2022-10-26T05:11:49.343Z,25.80
2022-10-26T05:14:16.187Z,25.00
2022-10-26T05:16:44.715Z,23.53
2022-10-26T05:19:11.715Z,24.03
2022-10-26T05:21:38.639Z,23.20
2022-10-26T05:24:08.790Z,24.97
2022-10-26T05:26:39.069Z,25.53
2022-10-26T05:29:08.225Z,26.70
2022-10-26T05:31:35.125Z,27.70
2022-10-26T05:34:01.881Z,27.97
2022-10-26T05:36:29.935Z,25.00
2022-10-26T05:38:59.871Z,24.97
2022-10-26T05:41:26.658Z,21.53
2022-10-26T05:43:53.446Z,22.13
2022-10-26T05:46:21.117Z,23.80
2022-10-26T05:48:47.866Z,23.57
2022-10-26T05:51:16.678Z,24.70
2022-10-26T05:53:47.033Z,26.20
2022-10-26T05:56:21.663Z,28.23
2022-10-26T05:58:48.762Z,24.73
2022-10-26T06:01:28.451Z,27.83
2022-10-26T06:04:07.799Z,23.57
2022-10-26T06:06:45.055Z,26.33
2022-10-26T06:09:13.472Z,25.20
2022-10-26T06:11:41.108Z,26.47
2022-10-26T06:14:09.735Z,30.67
2022-10-26T06:16:55.386Z,21.73
2022-10-26T06:20:08.711Z,25.83
2022-10-26T06:22:51.598Z,24.00
2022-10-26T06:25:28.589Z,20.80
2022-10-26T06:28:05.222Z,22.10
2022-10-26T06:30:32.964Z,29.27
2022-10-26T06:33:11.459Z,21.90
2022-10-26T06:36:04.536Z,22.27
2022-10-26T06:38:34.616Z,23.73
2022-10-26T06:41:02.198Z,21.23
2022-10-26T06:43:34.145Z,22.43
2022-10-26T06:46:06.327Z,25.43
2022-10-26T06:48:43.700Z,23.10
2022-10-26T06:51:15.579Z,23.50
2022-10-26T06:54:00.463Z,25.40
2022-10-26T06:56:28.003Z,24.50
2022-10-26T06:58:56.442Z,23.00
2022-10-26T07:01:23.323Z,32.10
2022-10-26T07:03:50.360Z,24.00
2022-10-26T07:08:44.020Z,27.30
2022-10-26T07:11:10.999Z,22.93
2022-10-26T07:13:37.747Z,19.87
2022-10-26T07:16:04.880Z,22.27
2022-10-26T07:18:31.622Z,23.67
2022-10-26T07:20:59.373Z,20.97
2022-10-26T07:23:26.111Z,21.47
2022-10-26T07:25:52.921Z,21.93
2022-10-26T07:28:19.742Z,22.33
2022-10-26T07:30:46.556Z,18.80
2022-10-26T07:33:14.922Z,20.90
2022-10-26T07:35:41.839Z,21.03
2022-10-26T07:38:09.326Z,23.37
2022-10-26T07:40:37.848Z,20.80
2022-10-26T07:43:04.662Z,19.33
2022-10-26T07:45:31.737Z,18.93
2022-10-26T07:47:58.464Z,21.00
2022-10-26T07:50:25.500Z,17.60
2022-10-26T07:52:52.733Z,21.17
2022-10-26T07:55:23.078Z,15.40
2022-10-26T07:57:54.651Z,19.17
2022-10-26T08:00:22.568Z,20.20
2022-10-26T08:02:49.317Z,21.30
2022-10-26T08:05:16.093Z,19.10
2022-10-26T08:07:45.796Z,21.93
2022-10-26T08:10:14.384Z,17.47
2022-10-26T08:12:43.243Z,14.50
2022-10-26T08:15:10.308Z,13.83
2022-10-26T08:17:39.499Z,15.50
2022-10-26T08:20:06.676Z,16.90
2022-10-26T08:22:33.421Z,15.73
2022-10-26T08:25:00.166Z,15.53
2022-10-26T08:27:27.524Z,16.63
2022-10-26T08:29:54.259Z,16.57
2022-10-26T08:32:22.241Z,17.63
2022-10-26T08:34:48.959Z,14.73
2022-10-26T08:37:15.738Z,17.20
2022-10-26T08:39:42.459Z,11.43
2022-10-26T08:42:19.527Z,16.27
2022-10-26T08:44:58.469Z,14.50
2022-10-26T08:47:37.321Z,19.63
2022-10-26T08:50:42.919Z,17.10
2022-10-26T08:53:51.019Z,16.13
2022-10-26T08:56:22.028Z,15.57
2022-10-26T08:58:54.628Z,15.50
2022-10-26T09:01:21.525Z,13.73
2022-10-26T09:03:48.340Z,12.17
2022-10-26T09:06:38.977Z,15.07
2022-10-26T09:09:23.888Z,9.00
2022-10-26T09:12:06.691Z,13.83
2022-10-26T09:15:11.831Z,14.80
2022-10-26T09:17:38.592Z,14.10
2022-10-26T09:20:57.711Z,14.43
2022-10-26T09:23:52.268Z,12.43
2022-10-26T09:26:44.384Z,10.00
2022-10-26T09:29:15.009Z,14.70
2022-10-26T09:31:47.113Z,8.90
2022-10-26T09:34:27.985Z,15.60
2022-10-26T09:36:58.644Z,6.53
2022-10-26T09:39:52.042Z,10.82
2022-10-26T09:42:29.184Z,7.90
2022-10-26T09:45:01.960Z,7.35
2022-10-26T09:47:42.213Z,6.28
2022-10-26T09:50:28.760Z,6.60
2022-10-26T09:52:55.852Z,8.07
2022-10-26T09:55:23.033Z,7.70
2022-10-26T09:57:56.811Z,4.70
2022-10-26T10:00:26.416Z,5.80
2022-10-26T10:02:59.118Z,4.25
2022-10-26T10:08:22.509Z,6.30
2022-10-26T10:10:56.059Z,7.38
2022-10-26T10:13:25.452Z,6.85
2022-10-26T10:16:02.711Z,6.35
2022-10-26T10:18:29.995Z,8.18
2022-10-26T10:20:59.401Z,4.47
2022-10-26T10:23:47.064Z,6.57
2022-10-26T10:26:14.064Z,7.10
2022-10-26T10:28:42.761Z,4.75
2022-10-26T10:31:28.560Z,5.50
2022-10-26T10:33:55.568Z,11.00
2022-10-26T10:36:29.828Z,4.15
2022-10-26T10:39:13.615Z,4.60
2022-10-26T10:41:45.201Z,7.85
2022-10-26T10:44:33.787Z,5.72
2022-10-26T10:47:05.914Z,5.97
2022-10-26T10:49:33.426Z,7.15
2022-10-26T10:52:00.902Z,5.18
2022-10-26T10:54:32.365Z,7.75
2022-10-26T10:57:25.027Z,10.05
2022-10-26T11:00:05.039Z,6.85
2022-10-26T11:02:37.790Z,5.82
2022-10-26T11:05:27.582Z,7.43
2022-10-26T11:08:18.204Z,6.00
2022-10-26T11:11:08.174Z,5.68
2022-10-26T11:14:00.863Z,11.15
2022-10-26T11:16:37.503Z,7.53
2022-10-26T11:19:30.459Z,8.80
2022-10-26T11:21:57.461Z,8.35
2022-10-26T11:24:29.997Z,6.18
2022-10-26T11:27:14.521Z,9.88
2022-10-26T11:30:04.154Z,5.03
2022-10-26T11:32:40.161Z,9.60
2022-10-26T11:35:28.759Z,7.13
2022-10-26T11:38:09.720Z,11.38
2022-10-26T11:40:53.125Z,6.50
2022-10-26T11:43:38.329Z,10.20
2022-10-26T11:46:19.200Z,5.97
2022-10-26T11:48:55.737Z,8.45
2022-10-26T11:51:41.452Z,10.80
2022-10-26T11:54:23.809Z,5.45
2022-10-26T11:56:54.300Z,6.45
2022-10-26T11:59:32.291Z,7.55
2022-10-26T12:02:24.800Z,8.23
2022-10-26T12:04:59.785Z,4.72
2022-10-26T12:07:32.818Z,7.35
2022-10-26T12:10:02.723Z,8.75
2022-10-26T12:12:50.886Z,10.27
2022-10-26T12:16:02.523Z,7.93
2022-10-26T12:19:00.542Z,6.57
2022-10-26T12:21:31.979Z,9.98
2022-10-26T12:24:23.582Z,8.95
2022-10-26T12:27:04.434Z,9.95
2022-10-26T12:29:49.184Z,7.07
2022-10-26T12:32:31.133Z,6.10
2022-10-26T12:35:00.621Z,6.18
2022-10-26T12:37:37.964Z,7.88
2022-10-26T12:40:40.768Z,6.55
2022-10-26T12:43:16.607Z,4.78
2022-10-26T12:46:13.343Z,6.90
2022-10-26T12:48:40.051Z,6.90
2022-10-26T12:51:22.156Z,7.15
2022-10-26T12:53:57.826Z,8.63
2022-10-26T12:56:32.273Z,9.43
2022-10-26T12:59:22.632Z,10.43
2022-10-26T13:02:10.855Z,9.57
2022-10-26T13:04:45.684Z,6.75
2022-10-26T13:07:27.783Z,8.15
2022-10-26T13:10:00.450Z,8.10
2022-10-26T13:12:29.721Z,5.32
2022-10-26T13:15:07.368Z,7.78
2022-10-26T13:20:07.435Z,6.57
2022-10-26T13:22:44.519Z,6.30
2022-10-26T13:25:31.036Z,6.22
2022-10-26T13:28:02.454Z,10.00
2022-10-26T13:30:44.088Z,6.65
2022-10-26T13:33:23.522Z,6.40
2022-10-26T13:35:54.437Z,7.50
2022-10-26T13:38:24.969Z,6.07
2022-10-26T13:40:57.881Z,3.90
2022-10-26T13:43:25.624Z,6.65
2022-10-26T13:46:22.708Z,9.25
2022-10-26T13:48:51.867Z,9.35
2022-10-26T13:51:26.022Z,5.88
2022-10-26T13:54:00.209Z,10.80
2022-10-26T13:56:43.111Z,9.95
2022-10-26T13:59:12.943Z,6.32
2022-10-26T14:01:39.949Z,6.28
2022-10-26T14:04:18.161Z,4.25
2022-10-26T14:06:50.674Z,6.35
2022-10-26T14:09:18.653Z,7.63
2022-10-26T14:11:53.591Z,6.53
2022-10-26T14:14:24.918Z,5.18
2022-10-26T14:16:53.566Z,6.90
2022-10-26T14:19:33.491Z,6.50
2022-10-26T14:22:01.775Z,6.75
2022-10-26T14:24:46.131Z,5.38
2022-10-26T14:27:19.424Z,7.13
2022-10-26T14:30:03.690Z,6.80
2022-10-26T14:32:34.019Z,7.35
2022-10-26T14:35:01.251Z,5.50
2022-10-26T14:37:41.616Z,6.10
2022-10-26T14:40:21.863Z,7.70
2022-10-26T14:42:58.293Z,4.95
2022-10-26T14:45:43.332Z,8.70
2022-10-26T14:48:32.791Z,9.35
2022-10-26T14:51:01.576Z,8.10
2022-10-26T14:53:37.800Z,6.65
2022-10-26T14:56:18.090Z,6.85
2022-10-26T14:58:45.011Z,5.60
2022-10-26T15:01:30.281Z,8.82
2022-10-26T15:04:06.900Z,8.73
2022-10-26T15:06:40.513Z,10.13
2022-10-26T15:09:27.519Z,8.68
2022-10-26T15:11:57.689Z,7.90
2022-10-26T15:14:29.719Z,8.30
2022-10-26T15:16:59.710Z,7.38
2022-10-26T15:19:33.126Z,8.65
2022-10-26T15:22:20.450Z,10.02
2022-10-26T15:24:59.098Z,9.35
2022-10-26T15:27:29.616Z,8.00
2022-10-26T15:30:20.697Z,7.55
2022-10-26T15:32:51.480Z,8.48
2022-10-26T15:35:24.889Z,6.47
2022-10-26T15:37:56.268Z,9.25
2022-10-26T15:43:00.312Z,6.07
2022-10-26T15:45:36.705Z,12.85
2022-10-26T15:48:25.816Z,7.53
2022-10-26T15:50:52.909Z,6.75
2022-10-26T15:53:22.988Z,9.38
2022-10-26T15:55:51.884Z,6.93
2022-10-26T15:58:21.116Z,9.93
2022-10-26T16:00:48.009Z,8.05
2022-10-26T16:03:21.047Z,9.40
2022-10-26T16:05:55.540Z,7.35
2022-10-26T16:08:23.605Z,8.52
2022-10-26T16:10:51.250Z,7.65
2022-10-26T16:13:18.417Z,9.68
2022-10-26T16:15:45.526Z,9.27
2022-10-26T16:18:13.168Z,10.48
2022-10-26T16:20:51.134Z,8.43
2022-10-26T16:23:18.112Z,10.38
2022-10-26T16:25:46.759Z,8.10
2022-10-26T16:28:16.711Z,11.13
2022-10-26T16:30:45.698Z,8.48
2022-10-26T16:33:12.535Z,10.25
2022-10-26T16:35:44.469Z,9.30
2022-10-26T16:38:11.449Z,9.23
2022-10-26T16:40:38.580Z,11.32
2022-10-26T16:43:05.627Z,11.57
2022-10-26T16:45:42.290Z,9.00
2022-10-26T16:48:16.201Z,9.90
2022-10-26T16:50:44.680Z,9.15
2022-10-26T16:53:12.775Z,8.30
2022-10-26T16:55:39.959Z,12.85
2022-10-26T16:58:07.478Z,7.03
2022-10-26T17:00:39.311Z,11.40
2022-10-26T17:03:07.697Z,12.15
2022-10-26T17:05:37.741Z,14.60
2022-10-26T17:08:04.808Z,9.45
2022-10-26T17:10:34.002Z,10.15
2022-10-26T17:13:02.154Z,10.60
2022-10-26T17:15:29.454Z,9.10
2022-10-26T17:17:56.994Z,8.48
2022-10-26T17:20:25.174Z,12.32
2022-10-26T17:22:52.646Z,9.27
2022-10-26T17:25:20.092Z,9.23
2022-10-26T17:27:48.311Z,9.40
2022-10-26T17:30:17.309Z,6.30
2022-10-26T17:32:48.237Z,7.65
2022-10-26T17:35:20.223Z,11.88
2022-10-26T17:37:47.288Z,10.40
2022-10-26T17:40:14.642Z,8.95
2022-10-26T17:42:48.546Z,9.27
2022-10-26T17:45:21.749Z,10.27
2022-10-26T17:47:52.325Z,7.15
2022-10-26T17:50:19.585Z,7.57
2022-10-26T17:52:52.368Z,7.70
2022-10-26T17:55:19.393Z,8.73
2022-10-26T17:57:46.417Z,10.30
2022-10-26T18:00:14.850Z,12.65
2022-10-26T18:02:41.792Z,9.48
2022-10-26T18:05:09.078Z,10.02
2022-10-26T18:07:37.210Z,4.47
2022-10-26T18:10:14.002Z,9.50
2022-10-26T18:12:52.260Z,11.63
2022-10-26T18:15:19.676Z,6.35
2022-10-26T18:17:51.053Z,7.70
2022-10-26T18:20:20.316Z,7.93
2022-10-26T18:22:53.080Z,9.45
2022-10-26T18:25:20.039Z,5.85
2022-10-26T18:27:47.006Z,9.65
2022-10-26T18:30:13.957Z,7.30
2022-10-26T18:32:40.979Z,8.32
2022-10-26T18:35:08.077Z,7.95
2022-10-26T18:37:34.879Z,7.90
2022-10-26T18:40:05.223Z,9.98
2022-10-26T18:42:32.176Z,6.53
2022-10-26T18:45:02.777Z,7.97
2022-10-26T18:47:30.664Z,9.82
2022-10-26T18:49:58.006Z,8.80
2022-10-26T18:52:27.263Z,8.52
2022-10-26T18:54:55.036Z,9.20
2022-10-26T18:57:27.012Z,9.33
2022-10-26T18:59:55.114Z,7.85
2022-10-26T19:02:23.117Z,7.85
2022-10-26T19:04:53.185Z,6.63
2022-10-26T19:07:20.338Z,6.88
2022-10-26T19:09:53.733Z,6.50
2022-10-26T19:12:20.677Z,9.32
2022-10-26T19:14:47.757Z,6.65
2022-10-26T19:17:14.842Z,6.88
2022-10-26T19:19:41.657Z,13.57
2022-10-26T19:22:08.658Z,8.52
2022-10-26T19:24:35.519Z,8.38
2022-10-26T19:27:07.623Z,8.37
2022-10-26T19:29:35.907Z,7.00
2022-10-26T19:32:02.960Z,9.95
2022-10-26T19:34:29.861Z,11.70
2022-10-26T19:36:56.728Z,11.57
2022-10-26T19:39:24.582Z,8.40
2022-10-26T19:41:51.395Z,7.97
2022-10-26T19:44:23.114Z,12.27
2022-10-26T19:46:51.997Z,8.15
2022-10-26T19:49:21.252Z,11.50
2022-10-26T19:51:48.423Z,8.27
2022-10-26T19:54:15.258Z,9.15
2022-10-26T19:56:42.053Z,11.25
2022-10-26T19:59:11.157Z,10.50
2022-10-26T20:01:40.241Z,8.07
2022-10-26T20:04:07.420Z,11.17
2022-10-26T20:06:35.337Z,9.85
2022-10-26T20:09:02.637Z,10.52
2022-10-26T20:11:32.478Z,7.30
2022-10-26T20:13:59.507Z,9.00
2022-10-26T20:16:26.413Z,11.23
2022-10-26T20:18:53.433Z,9.13
2022-10-26T20:21:20.372Z,9.27
2022-10-26T20:23:47.094Z,11.13
2022-10-26T20:26:18.743Z,7.87
2022-10-26T20:28:47.997Z,10.63
2022-10-26T20:31:15.550Z,12.88
2022-10-26T20:33:42.567Z,8.67
2022-10-26T20:36:09.328Z,7.63
2022-10-26T20:38:39.931Z,8.37
2022-10-26T20:41:14.638Z,11.73
2022-10-26T20:43:41.820Z,8.20
2022-10-26T20:46:26.095Z,14.33
2022-10-26T20:48:55.287Z,7.87
2022-10-26T20:51:52.004Z,9.70
2022-10-26T20:54:48.885Z,10.53
2022-10-26T20:57:22.691Z,11.83
2022-10-26T21:00:03.855Z,13.30
2022-10-26T21:02:32.163Z,12.43
2022-10-26T21:05:02.057Z,14.73
2022-10-26T21:07:28.871Z,11.73
2022-10-26T21:09:55.811Z,12.57
2022-10-26T21:12:22.997Z,16.20
2022-10-26T21:14:50.161Z,8.93
2022-10-26T21:17:16.953Z,11.73
2022-10-26T21:19:43.737Z,6.90
2022-10-26T21:22:11.546Z,12.80
2022-10-26T21:24:38.341Z,12.27
2022-10-26T21:27:05.222Z,10.83
2022-10-26T21:29:31.997Z,9.13
2022-10-26T21:31:59.727Z,10.03
2022-10-26T21:34:26.456Z,8.87
2022-10-26T21:36:56.681Z,10.83
2022-10-26T21:39:23.425Z,10.60
2022-10-26T21:41:53.008Z,11.57
2022-10-26T21:44:35.628Z,9.80
2022-10-26T21:47:06.732Z,16.67
2022-10-26T21:49:33.453Z,9.30
2022-10-26T21:52:01.237Z,9.57
2022-10-26T21:54:28.015Z,8.97
2022-10-26T21:57:03.079Z,10.43
2022-10-26T21:59:42.212Z,10.17
2022-10-26T22:02:09.328Z,13.60
2022-10-26T22:04:38.695Z,14.43
2022-10-26T22:07:08.072Z,12.37
2022-10-26T22:09:40.683Z,12.37
2022-10-26T22:12:16.997Z,14.27
2022-10-26T22:14:54.809Z,15.63
2022-10-26T22:17:21.768Z,11.70
2022-10-26T22:19:51.598Z,11.37
2022-10-26T22:22:23.747Z,10.97
2022-10-26T22:24:50.619Z,8.50
2022-10-26T22:27:17.599Z,13.73
2022-10-26T22:29:45.610Z,10.77
2022-10-26T22:32:19.345Z,11.90
2022-10-26T22:34:46.071Z,9.50
2022-10-26T22:37:13.161Z,12.73
2022-10-26T22:39:40.179Z,15.43
2022-10-26T22:42:11.106Z,11.37
2022-10-26T22:44:38.909Z,14.73
2022-10-26T22:47:05.718Z,11.67
2022-10-26T22:49:34.460Z,10.40
2022-10-26T22:52:02.229Z,11.47
2022-10-26T22:54:29.117Z,11.07
2022-10-26T22:56:56.009Z,16.07
2022-10-26T22:59:31.897Z,9.80
2022-10-26T23:02:06.477Z,13.57
2022-10-26T23:04:34.167Z,15.00
2022-10-26T23:07:03.074Z,13.37
2022-10-26T23:09:30.749Z,12.07
2022-10-26T23:11:57.421Z,10.53
2022-10-26T23:14:27.589Z,8.03
2022-10-26T23:16:56.840Z,16.37
2022-10-26T23:19:31.404Z,11.40
2022-10-26T23:21:58.278Z,10.70
2022-10-26T23:24:25.010Z,14.73
2022-10-26T23:26:51.842Z,12.27
2022-10-26T23:29:18.661Z,9.80
2022-10-26T23:31:48.125Z,15.40
2022-10-26T23:34:14.915Z,10.17
2022-10-26T23:36:41.679Z,9.80
2022-10-26T23:39:08.529Z,11.43
2022-10-26T23:41:35.326Z,9.63
2022-10-26T23:44:03.096Z,11.70
2022-10-26T23:46:30.967Z,12.10
2022-10-26T23:49:00.499Z,11.40
2022-10-26T23:51:27.379Z,10.70
2022-10-26T23:53:54.414Z,16.43
2022-10-26T23:56:25.055Z,10.43
2022-10-26T23:58:51.845Z,9.53
